Time;durP1;ratioP1;P1;durP2;ratioP2;P2;SDS_P1;SDS_P2;PMS_P1;PMS_P2;Temp;Humidity;BMP_temperature;BMP_pressure;BME280_temperature;BME280_humidity;BME280_pressure;Samples;Min_cycle;Max_cycle;Signal;HPM_P1;HPM_P2
2023/06/21 00:01:28;;;;;;;;;;;17.80;68.30;;;;;;5107791;28;19912;-72
2023/06/21 00:03:54;;;;;;;;;;;17.80;68.30;;;;;;5107608;28;19971;-72
2023/06/21 00:06:19;;;;;;;;;;;17.80;68.30;;;;;;5107813;28;20000;-72
2023/06/21 00:08:48;;;;;;;;;;;17.70;68.70;;;;;;5107682;28;19915;-72
2023/06/21 00:11:13;;;;;;;;;;;17.70;68.20;;;;;;5110657;28;19947;-72
2023/06/21 00:13:39;;;;;;;;;;;17.70;68.30;;;;;;5111393;28;20035;-72
2023/06/21 00:16:04;;;;;;;;;;;17.70;68.30;;;;;;5111413;27;19935;-72
2023/06/21 00:18:30;;;;;;;;;;;17.60;68.20;;;;;;5111433;28;19912;-72
2023/06/21 00:20:59;;;;;;;;;;;17.60;68.30;;;;;;5111443;28;19999;-72
2023/06/21 00:23:25;;;;;;;;;;;17.60;68.30;;;;;;5111329;28;19912;-72
2023/06/21 00:25:50;;;;;;;;;;;17.50;68.20;;;;;;5111482;28;20010;-72
2023/06/21 00:28:16;;;;;;;;;;;17.50;68.30;;;;;;5111283;28;19908;-72
2023/06/21 00:30:42;;;;;;;;;;;17.50;68.30;;;;;;5111226;28;19908;-72
2023/06/21 00:33:07;;;;;;;;;;;17.50;68.30;;;;;;5111099;28;19912;-72
2023/06/21 00:35:33;;;;;;;;;;;17.40;68.20;;;;;;5111191;28;19961;-72
2023/06/21 00:37:58;;;;;;;;;;;17.40;68.30;;;;;;5111047;28;19916;-72
2023/06/21 00:40:25;;;;;;;;;;;17.30;68.20;;;;;;5111076;28;19935;-72
2023/06/21 00:42:52;;;;;;;;;;;17.30;68.30;;;;;;5110992;28;19944;-72
2023/06/21 00:45:17;;;;;;;;;;;17.30;68.30;;;;;;5110994;28;19916;-72
2023/06/21 00:47:45;;;;;;;;;;;17.30;68.30;;;;;;5110983;28;19960;-71
2023/06/21 00:50:12;;;;;;;;;;;17.20;68.30;;;;;;5110919;28;19935;-72
2023/06/21 00:52:39;;;;;;;;;;;17.20;68.30;;;;;;5110774;28;20295;-71
2023/06/21 00:55:05;;;;;;;;;;;17.10;68.30;;;;;;5110741;28;20018;-72
2023/06/21 00:57:31;;;;;;;;;;;17.10;68.30;;;;;;5110708;28;19911;-72
2023/06/21 00:59:56;;;;;;;;;;;17.10;68.30;;;;;;5110725;28;19952;-72
2023/06/21 01:02:22;;;;;;;;;;;17.00;68.30;;;;;;5110474;28;19931;-72
2023/06/21 01:04:49;;;;;;;;;;;17.00;68.30;;;;;;5110670;28;20423;-72
2023/06/21 01:07:23;;;;;;;;;;;17.00;68.30;;;;;;5110621;28;19908;-71
2023/06/21 01:09:52;;;;;;;;;;;17.00;68.40;;;;;;5110482;28;19915;-72
2023/06/21 01:12:21;;;;;;;;;;;16.90;68.30;;;;;;5110752;28;19973;-72
2023/06/21 01:14:49;;;;;;;;;;;16.90;68.30;;;;;;5110375;27;20352;-71
2023/06/21 01:17:15;;;;;;;;;;;16.90;68.30;;;;;;5109017;28;19956;-72
2023/06/21 01:19:44;;;;;;;;;;;16.90;68.30;;;;;;5110292;27;19924;-72
2023/06/21 01:22:32;;;;;;;;;;;16.80;68.30;;;;;;5109507;28;19912;-72
2023/06/21 01:25:24;;;;;;;;;;;16.80;68.30;;;;;;5109952;27;19918;-72
2023/06/21 01:27:52;;;;;;;;;;;16.80;68.80;;;;;;5093547;28;19912;-71
2023/06/21 01:30:18;;;;;;;;;;;16.70;68.30;;;;;;5110189;28;19914;-72
2023/06/21 01:32:44;;;;;;;;;;;16.70;68.80;;;;;;5110066;28;20395;-72
2023/06/21 01:35:10;;;;;;;;;;;16.70;68.30;;;;;;5109891;28;19908;-71
2023/06/21 01:37:36;;;;;;;;;;;16.70;68.40;;;;;;5109951;28;19912;-72
2023/06/21 01:40:09;;;;;;;;;;;16.60;68.40;;;;;;5109962;27;19914;-72
2023/06/21 01:42:35;;;;;;;;;;;16.60;68.40;;;;;;5092668;28;19919;-72
2023/06/21 01:45:00;;;;;;;;;;;16.60;68.40;;;;;;5109863;28;19916;-72
2023/06/21 01:47:26;;;;;;;;;;;16.50;68.40;;;;;;5109908;27;19918;-72
2023/06/21 01:49:52;;;;;;;;;;;16.50;68.40;;;;;;5110036;28;20363;-72
2023/06/21 01:52:18;;;;;;;;;;;16.50;68.40;;;;;;5109959;28;20398;-72
2023/06/21 01:54:44;;;;;;;;;;;16.50;68.40;;;;;;5109686;28;19957;-71
2023/06/21 01:57:10;;;;;;;;;;;16.40;68.40;;;;;;5109727;28;20359;-72
2023/06/21 01:59:36;;;;;;;;;;;16.40;68.40;;;;;;5109653;28;19927;-71
2023/06/21 02:02:03;;;;;;;;;;;16.40;68.40;;;;;;5109419;28;19912;-72
2023/06/21 02:04:29;;;;;;;;;;;16.40;68.40;;;;;;5109481;28;19912;-72
2023/06/21 02:06:55;;;;;;;;;;;16.30;68.40;;;;;;5109568;28;20301;-72
2023/06/21 02:09:21;;;;;;;;;;;16.30;68.40;;;;;;5109765;28;19912;-72
2023/06/21 02:11:47;;;;;;;;;;;16.30;68.90;;;;;;5109413;28;19908;-72
2023/06/21 02:14:14;;;;;;;;;;;16.30;68.50;;;;;;5109298;28;19919;-71
2023/06/21 02:16:39;;;;;;;;;;;16.20;68.40;;;;;;5109258;28;19908;-72
2023/06/21 02:19:05;;;;;;;;;;;16.20;68.40;;;;;;5109216;28;19927;-71
2023/06/21 02:21:30;;;;;;;;;;;16.20;68.40;;;;;;5109267;28;19919;-72
2023/06/21 02:23:56;;;;;;;;;;;16.20;68.40;;;;;;5109141;28;19912;-72
2023/06/21 02:26:22;;;;;;;;;;;16.20;68.50;;;;;;5109261;28;19961;-72
2023/06/21 02:28:48;;;;;;;;;;;16.10;68.40;;;;;;5109092;28;19912;-72
2023/06/21 02:31:13;;;;;;;;;;;16.10;68.40;;;;;;5108980;28;20383;-71
2023/06/21 02:33:42;;;;;;;;;;;16.10;68.40;;;;;;5107971;28;19999;-72
2023/06/21 02:36:07;;;;;;;;;;;16.10;68.50;;;;;;5108993;28;19907;-72
2023/06/21 02:38:34;;;;;;;;;;;16.10;68.50;;;;;;5108886;28;19926;-72
2023/06/21 02:40:59;;;;;;;;;;;16.10;68.50;;;;;;5108934;28;19908;-72
2023/06/21 02:43:25;;;;;;;;;;;16.00;68.40;;;;;;5108765;28;20263;-72
2023/06/21 02:45:50;;;;;;;;;;;16.00;68.50;;;;;;5107836;28;20386;-72
2023/06/21 02:48:16;;;;;;;;;;;16.00;68.50;;;;;;5107484;28;19947;-72
2023/06/21 02:50:41;;;;;;;;;;;16.00;68.50;;;;;;5108716;28;19912;-72
2023/06/21 02:53:07;;;;;;;;;;;16.00;68.50;;;;;;5108799;28;19918;-71
2023/06/21 02:55:33;;;;;;;;;;;16.00;68.50;;;;;;5108605;28;19911;-72
2023/06/21 02:57:58;;;;;;;;;;;16.00;68.50;;;;;;5108551;28;20006;-72
2023/06/21 03:00:28;;;;;;;;;;;15.90;68.50;;;;;;5108521;28;19940;-72
2023/06/21 03:03:00;;;;;;;;;;;15.90;68.50;;;;;;5108355;28;19931;-72
2023/06/21 03:05:26;;;;;;;;;;;15.90;68.50;;;;;;5107086;28;19999;-72
2023/06/21 03:07:52;;;;;;;;;;;15.90;68.50;;;;;;5108607;28;19916;-72
2023/06/21 03:10:19;;;;;;;;;;;15.90;68.50;;;;;;5108475;28;19934;-72
2023/06/21 03:12:45;;;;;;;;;;;15.90;68.60;;;;;;5108383;28;19915;-72
2023/06/21 03:15:11;;;;;;;;;;;15.90;68.50;;;;;;5108349;28;20245;-72
2023/06/21 03:17:37;;;;;;;;;;;15.80;68.50;;;;;;5108432;28;19915;-72
2023/06/21 03:20:08;;;;;;;;;;;15.80;68.50;;;;;;5108219;28;19908;-72
2023/06/21 03:22:34;;;;;;;;;;;15.80;68.50;;;;;;5108324;28;19919;-72
2023/06/21 03:24:59;;;;;;;;;;;15.80;68.60;;;;;;5108202;28;19919;-72
2023/06/21 03:27:25;;;;;;;;;;;15.80;68.60;;;;;;5108162;28;20003;-72
2023/06/21 03:29:50;;;;;;;;;;;15.80;68.60;;;;;;5108259;28;20378;-72
2023/06/21 03:32:16;;;;;;;;;;;15.80;69.10;;;;;;5108389;28;20283;-72
2023/06/21 03:34:41;;;;;;;;;;;15.80;68.60;;;;;;5108112;28;20336;-71
2023/06/21 03:37:07;;;;;;;;;;;15.70;68.50;;;;;;5108187;28;19915;-72
2023/06/21 03:39:33;;;;;;;;;;;15.70;68.50;;;;;;5108111;28;20508;-72
2023/06/21 03:41:58;;;;;;;;;;;15.70;68.50;;;;;;5108140;28;19912;-72
2023/06/21 03:44:24;;;;;;;;;;;15.70;68.50;;;;;;5108039;28;19912;-72
2023/06/21 03:46:49;;;;;;;;;;;15.70;68.60;;;;;;5112217;28;20435;-72
2023/06/21 03:49:15;;;;;;;;;;;15.70;68.60;;;;;;5112135;28;20261;-72
2023/06/21 03:51:40;;;;;;;;;;;15.70;68.60;;;;;;5112467;28;19920;-72
2023/06/21 03:54:06;;;;;;;;;;;15.70;68.60;;;;;;5111986;28;19950;-72
2023/06/21 03:56:32;;;;;;;;;;;15.70;68.60;;;;;;5111983;28;19919;-72
2023/06/21 03:58:58;;;;;;;;;;;15.70;68.60;;;;;;5111924;28;19924;-72
2023/06/21 04:01:23;;;;;;;;;;;15.70;68.60;;;;;;5110660;28;19956;-72
2023/06/21 04:03:49;;;;;;;;;;;15.60;68.60;;;;;;5111573;28;19927;-71
2023/06/21 04:06:14;;;;;;;;;;;15.60;68.60;;;;;;5111643;28;19912;-72
2023/06/21 04:08:40;;;;;;;;;;;15.60;68.60;;;;;;5111788;28;19918;-72
2023/06/21 04:11:05;;;;;;;;;;;15.60;68.60;;;;;;5111790;28;20067;-72
2023/06/21 04:13:31;;;;;;;;;;;15.60;68.60;;;;;;5111712;28;19930;-72
2023/06/21 04:15:57;;;;;;;;;;;15.60;68.60;;;;;;5111690;28;19969;-72
2023/06/21 04:18:22;;;;;;;;;;;15.60;68.60;;;;;;5111577;28;19911;-72
2023/06/21 04:20:49;;;;;;;;;;;15.60;68.60;;;;;;5111729;27;19919;-72
2023/06/21 04:23:15;;;;;;;;;;;15.70;68.70;;;;;;5111501;28;19912;-72
2023/06/21 04:25:40;;;;;;;;;;;15.80;68.80;;;;;;5111440;28;20030;-72
2023/06/21 04:28:06;;;;;;;;;;;15.90;69.20;;;;;;5111903;28;19912;-72
2023/06/21 04:30:34;;;;;;;;;;;15.90;68.60;;;;;;5111437;28;20006;-72
2023/06/21 04:33:00;;;;;;;;;;;15.90;68.60;;;;;;5111328;28;20352;-72
2023/06/21 04:35:25;;;;;;;;;;;15.80;68.50;;;;;;5111228;28;20008;-72
2023/06/21 04:37:51;;;;;;;;;;;15.80;68.50;;;;;;5111244;28;19924;-72
2023/06/21 04:40:17;;;;;;;;;;;15.80;68.60;;;;;;5111147;28;19908;-72
2023/06/21 04:42:44;;;;;;;;;;;15.80;68.60;;;;;;5111284;28;19916;-71
2023/06/21 04:45:14;;;;;;;;;;;15.80;68.60;;;;;;5111094;28;19911;-72
2023/06/21 04:47:46;;;;;;;;;;;15.80;68.70;;;;;;5110999;28;19911;-72
2023/06/21 04:50:11;;;;;;;;;;;15.80;68.70;;;;;;5110792;28;19919;-71
2023/06/21 04:52:37;;;;;;;;;;;15.90;68.60;;;;;;5110720;28;19915;-72
2023/06/21 04:55:06;;;;;;;;;;;16.10;68.40;;;;;;5110661;28;19908;-71
2023/06/21 04:57:32;;;;;;;;;;;16.20;68.30;;;;;;5109507;27;20169;-72
2023/06/21 04:59:58;;;;;;;;;;;16.40;68.10;;;;;;5110379;28;19912;-72
2023/06/21 05:02:24;;;;;;;;;;;16.40;68.00;;;;;;5110559;28;20368;-72
2023/06/21 05:04:50;;;;;;;;;;;16.30;68.10;;;;;;5110558;28;19923;-72
2023/06/21 05:07:15;;;;;;;;;;;16.20;68.20;;;;;;5110638;28;19917;-72
2023/06/21 05:09:41;;;;;;;;;;;16.30;68.40;;;;;;5110453;28;19923;-72
2023/06/21 05:12:08;;;;;;;;;;;16.30;68.40;;;;;;5110766;28;19912;-72
2023/06/21 05:14:34;;;;;;;;;;;16.30;68.40;;;;;;5110361;28;19920;-72
2023/06/21 05:16:59;;;;;;;;;;;16.40;68.50;;;;;;5110252;28;20290;-71
2023/06/21 05:19:25;;;;;;;;;;;16.50;68.50;;;;;;5110151;28;20375;-72
2023/06/21 05:21:50;;;;;;;;;;;16.60;68.40;;;;;;5109300;28;20295;-72
2023/06/21 05:24:16;;;;;;;;;;;16.60;68.30;;;;;;5110147;28;20244;-72
2023/06/21 05:26:44;;;;;;;;;;;16.60;68.30;;;;;;5110291;28;19911;-72
2023/06/21 05:29:12;;;;;;;;;;;16.60;68.40;;;;;;5110180;28;19958;-72
2023/06/21 05:31:40;;;;;;;;;;;16.60;68.50;;;;;;5109755;28;19933;-72
2023/06/21 05:34:06;;;;;;;;;;;16.60;68.50;;;;;;5110038;28;19948;-72
2023/06/21 05:36:31;;;;;;;;;;;16.60;68.60;;;;;;5110490;28;20344;-72
2023/06/21 05:38:57;;;;;;;;;;;16.60;68.60;;;;;;5109817;28;20356;-72
2023/06/21 05:41:22;;;;;;;;;;;16.70;68.60;;;;;;5109868;28;19912;-72
2023/06/21 05:43:48;;;;;;;;;;;16.70;68.60;;;;;;5108424;28;19960;-71
2023/06/21 05:46:14;;;;;;;;;;;16.70;68.60;;;;;;5109879;28;19916;-72
2023/06/21 05:48:39;;;;;;;;;;;16.80;68.70;;;;;;5109722;28;19926;-72
2023/06/21 05:51:05;;;;;;;;;;;17.00;68.60;;;;;;5108344;28;19958;-72
2023/06/21 05:53:30;;;;;;;;;;;17.30;68.40;;;;;;5109406;28;19919;-72
2023/06/21 05:55:56;;;;;;;;;;;17.30;68.60;;;;;;5109658;28;19952;-72
2023/06/21 05:58:22;;;;;;;;;;;17.30;68.10;;;;;;5109171;28;19920;-72
2023/06/21 06:00:48;;;;;;;;;;;17.30;68.20;;;;;;5109222;28;19916;-72
2023/06/21 06:03:13;;;;;;;;;;;17.40;68.30;;;;;;5109075;28;20315;-72
2023/06/21 06:05:39;;;;;;;;;;;17.50;68.50;;;;;;5109108;28;20270;-72
2023/06/21 06:08:04;;;;;;;;;;;18.10;68.50;;;;;;5108986;28;19912;-72
2023/06/21 06:10:30;;;;;;;;;;;19.40;67.90;;;;;;5107695;28;19965;-72
2023/06/21 06:12:56;;;;;;;;;;;20.70;66.70;;;;;;5109203;28;20396;-72
2023/06/21 06:15:21;;;;;;;;;;;21.80;65.60;;;;;;5109064;28;20317;-72
2023/06/21 06:17:47;;;;;;;;;;;22.70;64.70;;;;;;5108916;28;19919;-72
2023/06/21 06:20:12;;;;;;;;;;;23.40;64.10;;;;;;5108833;28;19908;-72
2023/06/21 06:22:39;;;;;;;;;;;23.90;63.70;;;;;;5108693;28;19929;-72
2023/06/21 06:25:05;;;;;;;;;;;24.40;63.50;;;;;;5108823;28;19915;-72
2023/06/21 06:27:31;;;;;;;;;;;24.70;63.30;;;;;;5108826;28;19915;-72
2023/06/21 06:29:57;;;;;;;;;;;25.00;63.30;;;;;;5108437;28;19908;-72
2023/06/21 06:32:22;;;;;;;;;;;25.20;63.20;;;;;;5108806;28;19960;-72
2023/06/21 06:34:48;;;;;;;;;;;25.30;63.20;;;;;;5108679;28;19943;-72
2023/06/21 06:37:13;;;;;;;;;;;25.50;63.50;;;;;;5108396;28;19912;-72
2023/06/21 06:39:39;;;;;;;;;;;25.80;63.50;;;;;;5106631;28;19926;-72
2023/06/21 06:42:05;;;;;;;;;;;26.20;63.60;;;;;;5106798;28;19922;-72
2023/06/21 06:44:30;;;;;;;;;;;25.90;63.70;;;;;;5090239;28;19912;-72
2023/06/21 06:46:56;;;;;;;;;;;26.10;64.10;;;;;;5108709;28;20253;-72
2023/06/21 06:49:22;;;;;;;;;;;25.80;63.90;;;;;;5108294;28;19986;-72
2023/06/21 06:51:47;;;;;;;;;;;26.00;64.40;;;;;;5108196;28;19923;-72
2023/06/21 06:54:13;;;;;;;;;;;26.40;64.40;;;;;;5108314;28;19915;-72
2023/06/21 06:56:39;;;;;;;;;;;26.90;64.30;;;;;;5106825;28;20341;-72
2023/06/21 06:59:04;;;;;;;;;;;27.30;64.80;;;;;;5108110;28;19922;-72
2023/06/21 07:01:30;;;;;;;;;;;27.70;64.30;;;;;;5108160;28;20271;-72
2023/06/21 07:03:56;;;;;;;;;;;28.10;64.00;;;;;;5107882;28;19924;-72
2023/06/21 07:06:21;;;;;;;;;;;28.30;64.00;;;;;;5107999;28;19920;-72
2023/06/21 07:08:47;;;;;;;;;;;28.30;63.80;;;;;;5108458;28;19916;-72
2023/06/21 07:11:13;;;;;;;;;;;28.30;64.30;;;;;;5108201;28;20428;-72
2023/06/21 07:13:39;;;;;;;;;;;28.70;64.60;;;;;;5107821;28;19908;-72
2023/06/21 07:16:05;;;;;;;;;;;28.90;64.40;;;;;;5106543;28;19950;-73
2023/06/21 07:18:30;;;;;;;;;;;29.20;64.30;;;;;;5108142;28;19958;-72
2023/06/21 07:20:56;;;;;;;;;;;29.40;64.50;;;;;;5107083;28;20006;-72
2023/06/21 07:23:21;;;;;;;;;;;29.90;64.70;;;;;;5107732;28;19969;-72
2023/06/21 07:25:47;;;;;;;;;;;30.10;64.70;;;;;;5107495;28;19912;-72
2023/06/21 07:28:12;;;;;;;;;;;30.10;64.50;;;;;;5107653;28;20003;-72
2023/06/21 07:30:39;;;;;;;;;;;30.10;64.90;;;;;;5107527;28;20283;-72
2023/06/21 07:33:05;;;;;;;;;;;30.20;64.80;;;;;;5107822;28;20044;-72
2023/06/21 07:35:30;;;;;;;;;;;29.70;64.50;;;;;;5107497;28;20015;-72
2023/06/21 07:37:56;;;;;;;;;;;29.30;65.30;;;;;;5107524;28;19916;-71
2023/06/21 07:40:21;;;;;;;;;;;29.50;65.50;;;;;;5107270;28;20416;-72
2023/06/21 07:42:48;;;;;;;;;;;29.20;65.10;;;;;;5107708;28;19912;-72
2023/06/21 07:45:14;;;;;;;;;;;28.60;65.30;;;;;;5106094;28;20010;-73
2023/06/21 07:47:41;;;;;;;;;;;28.10;66.00;;;;;;5108203;28;20007;-72
2023/06/21 07:50:07;;;;;;;;;;;27.80;66.80;;;;;;5108295;28;19919;-72
2023/06/21 07:52:32;;;;;;;;;;;28.40;67.50;;;;;;5099264;28;20277;-72
2023/06/21 07:54:58;;;;;;;;;;;29.40;67.30;;;;;;5097200;28;19922;-72
2023/06/21 07:57:23;;;;;;;;;;;30.40;66.50;;;;;;5097479;28;19912;-73
2023/06/21 07:59:49;;;;;;;;;;;30.90;66.00;;;;;;5098336;28;20058;-72
2023/06/21 08:02:17;;;;;;;;;;;30.90;66.30;;;;;;5096435;28;19924;-72
2023/06/21 08:04:45;;;;;;;;;;;31.40;66.80;;;;;;5097343;28;19923;-72
2023/06/21 08:07:12;;;;;;;;;;;31.70;66.30;;;;;;5098385;28;19912;-72
2023/06/21 08:09:38;;;;;;;;;;;31.30;66.10;;;;;;5096895;28;20464;-72
2023/06/21 08:12:04;;;;;;;;;;;31.20;66.40;;;;;;5097201;28;20078;-72
2023/06/21 08:14:29;;;;;;;;;;;31.50;66.80;;;;;;5098301;28;19938;-72
2023/06/21 08:16:55;;;;;;;;;;;31.30;66.20;;;;;;5093085;28;19969;-72
2023/06/21 08:19:21;;;;;;;;;;;31.10;66.60;;;;;;5086278;28;20414;-72
2023/06/21 08:21:46;;;;;;;;;;;31.20;67.10;;;;;;5087252;28;19919;-72
2023/06/21 08:24:12;;;;;;;;;;;31.80;67.30;;;;;;5087834;28;20268;-72
2023/06/21 08:26:37;;;;;;;;;;;32.30;66.80;;;;;;5087713;28;20292;-72
2023/06/21 08:29:03;;;;;;;;;;;31.80;65.90;;;;;;5086838;28;20006;-72
2023/06/21 08:31:28;;;;;;;;;;;30.70;66.10;;;;;;5089104;28;20359;-72
2023/06/21 08:33:54;;;;;;;;;;;30.20;67.50;;;;;;5096508;28;20334;-72
2023/06/21 08:36:20;;;;;;;;;;;30.40;67.80;;;;;;5109181;28;20358;-72
2023/06/21 08:38:48;;;;;;;;;;;30.20;67.30;;;;;;5107440;28;19946;-72
2023/06/21 08:41:14;;;;;;;;;;;30.00;67.90;;;;;;5111429;28;19922;-72
2023/06/21 08:43:39;;;;;;;;;;;30.70;68.80;;;;;;5110731;28;19915;-72
2023/06/21 08:46:05;;;;;;;;;;;31.10;68.10;;;;;;5110523;28;19953;-72
2023/06/21 08:48:32;;;;;;;;;;;31.00;67.40;;;;;;5100803;27;19936;-72
2023/06/21 08:51:03;;;;;;;;;;;30.80;67.80;;;;;;5099284;28;20011;-72
2023/06/21 08:53:31;;;;;;;;;;;31.00;68.70;;;;;;5098778;28;19908;-72
2023/06/21 08:55:59;;;;;;;;;;;31.40;68.70;;;;;;5100336;28;19914;-72
2023/06/21 08:58:27;;;;;;;;;;;31.60;68.20;;;;;;5099340;28;19913;-74
2023/06/21 09:00:54;;;;;;;;;;;31.00;67.60;;;;;;5093178;28;20276;-73
2023/06/21 09:03:23;;;;;;;;;;;30.80;68.30;;;;;;5097030;28;20273;-73
2023/06/21 09:05:48;;;;;;;;;;;31.20;69.10;;;;;;5101342;28;19908;-73
2023/06/21 09:08:14;;;;;;;;;;;31.90;69.20;;;;;;5099641;28;19995;-73
2023/06/21 09:10:40;;;;;;;;;;;32.70;69.00;;;;;;5101016;28;19908;-73
2023/06/21 09:13:06;;;;;;;;;;;33.10;68.60;;;;;;5100607;28;19947;-73
2023/06/21 09:15:32;;;;;;;;;;;33.10;68.00;;;;;;5098944;28;19923;-73
2023/06/21 09:17:58;;;;;;;;;;;33.20;68.20;;;;;;5098911;28;19922;-73
2023/06/21 09:20:28;;;;;;;;;;;32.80;67.50;;;;;;5099172;28;19916;-73
2023/06/21 09:22:59;;;;;;;;;;;32.30;68.00;;;;;;5097877;28;19908;-73
2023/06/21 09:25:26;;;;;;;;;;;32.50;68.90;;;;;;5097837;28;19977;-73
2023/06/21 09:27:55;;;;;;;;;;;33.00;68.80;;;;;;5098983;28;19916;-73
2023/06/21 09:30:21;;;;;;;;;;;32.70;68.10;;;;;;5101881;28;19907;-73
2023/06/21 09:32:47;;;;;;;;;;;32.70;69.10;;;;;;5100775;28;19961;-73
2023/06/21 09:35:15;;;;;;;;;;;33.40;69.60;;;;;;5101468;28;19908;-73
2023/06/21 09:37:41;;;;;;;;;;;34.30;69.80;;;;;;5101069;28;20353;-73
2023/06/21 09:40:07;;;;;;;;;;;34.90;69.30;;;;;;5097396;28;19919;-69
2023/06/21 09:42:37;;;;;;;;;;;35.40;69.30;;;;;;5096647;28;19912;-74
2023/06/21 09:45:07;;;;;;;;;;;35.90;69.30;;;;;;5096909;28;19912;-74
2023/06/21 09:47:32;;;;;;;;;;;35.90;68.60;;;;;;5098989;28;20007;-74
2023/06/21 09:49:58;;;;;;;;;;;35.70;68.40;;;;;;5104718;28;20030;-74
2023/06/21 09:52:24;;;;;;;;;;;35.50;68.80;;;;;;5105292;28;19941;-74
2023/06/21 09:54:50;;;;;;;;;;;35.90;69.50;;;;;;5105616;28;19907;-74
2023/06/21 09:57:16;;;;;;;;;;;36.00;68.90;;;;;;5103527;28;19913;-74
2023/06/21 09:59:47;;;;;;;;;;;35.80;68.80;;;;;;5090089;28;19926;-73
2023/06/21 10:02:12;;;;;;;;;;;35.80;69.00;;;;;;5101663;28;19923;-74
2023/06/21 10:04:39;;;;;;;;;;;35.80;68.90;;;;;;5096976;28;19923;-74
2023/06/21 10:07:05;;;;;;;;;;;36.00;69.00;;;;;;5097609;28;19956;-74
2023/06/21 10:09:37;;;;;;;;;;;36.20;69.10;;;;;;5099289;28;20010;-74
2023/06/21 10:12:06;;;;;;;;;;;36.40;69.00;;;;;;5099167;28;19920;-73
2023/06/21 10:14:31;;;;;;;;;;;36.40;68.80;;;;;;5098176;28;20221;-74
2023/06/21 10:16:57;;;;;;;;;;;36.30;68.90;;;;;;5098754;28;19933;-71
2023/06/21 10:19:24;;;;;;;;;;;36.10;69.10;;;;;;5099698;28;19920;-71
2023/06/21 10:22:04;;;;;;;;;;;36.10;69.40;;;;;;5097677;28;19912;-71
2023/06/21 10:24:49;;;;;;;;;;;35.70;68.80;;;;;;5097382;28;19912;-71
2023/06/21 10:27:15;;;;;;;;;;;35.60;69.70;;;;;;5100173;28;20283;-72
2023/06/21 10:29:42;;;;;;;;;;;35.90;69.60;;;;;;5097469;28;19912;-71
2023/06/21 10:32:08;;;;;;;;;;;36.10;69.70;;;;;;5099325;28;20043;-71
2023/06/21 10:34:49;;;;;;;;;;;36.20;69.60;;;;;;5096512;28;19912;-72
2023/06/21 10:37:20;;;;;;;;;;;35.60;69.10;;;;;;5098647;28;19908;-73
2023/06/21 10:39:48;;;;;;;;;;;35.30;69.60;;;;;;5097094;28;19923;-73
2023/06/21 10:42:14;;;;;;;;;;;35.40;69.60;;;;;;5100382;28;19960;-73
2023/06/21 10:44:40;;;;;;;;;;;35.50;69.70;;;;;;5097676;28;20464;-73
2023/06/21 10:47:05;;;;;;;;;;;35.60;70.00;;;;;;5097902;28;19912;-74
2023/06/21 10:49:31;;;;;;;;;;;35.80;69.70;;;;;;5097335;28;19915;-70
2023/06/21 10:51:57;;;;;;;;;;;35.80;69.90;;;;;;5097975;28;20007;-71
2023/06/21 10:54:23;;;;;;;;;;;35.90;69.90;;;;;;5098192;28;19914;-74
2023/06/21 10:56:50;;;;;;;;;;;36.20;70.10;;;;;;5097369;28;19965;-74
2023/06/21 10:59:17;;;;;;;;;;;36.30;70.00;;;;;;5098039;28;19912;-73
2023/06/21 11:01:42;;;;;;;;;;;36.30;70.10;;;;;;5098783;28;19923;-74
2023/06/21 11:04:08;;;;;;;;;;;36.40;70.00;;;;;;5097006;28;19924;-75
2023/06/21 11:06:34;;;;;;;;;;;36.50;70.00;;;;;;5098139;28;20006;-74
2023/06/21 11:09:11;;;;;;;;;;;36.60;69.80;;;;;;5098041;28;19977;-75
2023/06/21 11:11:40;;;;;;;;;;;36.40;69.60;;;;;;5098215;28;20003;-74
2023/06/21 11:14:06;;;;;;;;;;;36.30;70.10;;;;;;5096786;28;19908;-74
2023/06/21 11:16:35;;;;;;;;;;;36.40;70.10;;;;;;5098508;28;19971;-75
2023/06/21 11:19:06;;;;;;;;;;;36.40;70.00;;;;;;5098043;28;20279;-76
2023/06/21 11:21:40;;;;;;;;;;;36.70;70.30;;;;;;5096818;28;19912;-73
2023/06/21 11:24:07;;;;;;;;;;;36.80;70.00;;;;;;5095286;28;19912;-71
2023/06/21 11:27:00;;;;;;;;;;;36.80;70.40;;;;;;5095201;28;19962;-71
2023/06/21 11:29:27;;;;;;;;;;;37.00;70.20;;;;;;5097146;27;19908;-73
2023/06/21 11:32:06;;;;;;;;;;;36.90;70.10;;;;;;5098336;28;19951;-72
2023/06/21 11:34:32;;;;;;;;;;;37.00;70.30;;;;;;5096732;28;19991;-72
2023/06/21 11:37:17;;;;;;;;;;;37.00;70.30;;;;;;5098510;28;20007;-73
2023/06/21 11:39:44;;;;;;;;;;;37.00;70.20;;;;;;5098810;28;19916;-72
2023/06/21 11:42:15;;;;;;;;;;;36.90;70.10;;;;;;5098624;28;19959;-71
2023/06/21 11:44:40;;;;;;;;;;;36.90;70.30;;;;;;5101264;28;20345;-71
2023/06/21 11:47:18;;;;;;;;;;;37.20;70.50;;;;;;5096202;28;20006;-71
2023/06/21 11:50:09;;;;;;;;;;;37.50;70.70;;;;;;5098648;28;19919;-73
2023/06/21 11:52:35;;;;;;;;;;;37.70;70.50;;;;;;5100366;28;20271;-71
2023/06/21 11:55:13;;;;;;;;;;;37.30;70.50;;;;;;5098856;28;19912;-72
2023/06/21 11:57:42;;;;;;;;;;;37.20;70.60;;;;;;5096032;28;20371;-73
2023/06/21 12:00:08;;;;;;;;;;;37.20;70.50;;;;;;5095825;28;19927;-71
2023/06/21 12:02:34;;;;;;;;;;;36.90;70.30;;;;;;5099456;28;20619;-69
2023/06/21 12:05:00;;;;;;;;;;;36.50;69.90;;;;;;5080709;28;20019;-68
2023/06/21 12:07:25;;;;;;;;;;;36.00;70.50;;;;;;5098732;28;19954;-72
2023/06/21 12:09:51;;;;;;;;;;;35.70;71.30;;;;;;5099376;28;20372;-72
2023/06/21 12:12:16;;;;;;;;;;;35.70;71.40;;;;;;5101077;28;19944;-73
2023/06/21 12:14:42;;;;;;;;;;;35.60;71.10;;;;;;5101739;28;19912;-72
2023/06/21 12:17:08;;;;;;;;;;;35.70;71.10;;;;;;5098309;28;19935;-71
2023/06/21 12:19:33;;;;;;;;;;;35.50;70.70;;;;;;5099225;28;20364;-72
2023/06/21 12:22:02;;;;;;;;;;;35.40;71.90;;;;;;5102245;28;19912;-72
2023/06/21 12:24:29;;;;;;;;;;;35.70;71.50;;;;;;5099651;28;19934;-72
2023/06/21 12:26:58;;;;;;;;;;;35.70;71.40;;;;;;5098666;28;20108;-74
2023/06/21 12:29:24;;;;;;;;;;;35.50;71.30;;;;;;5100252;28;19953;-73
2023/06/21 12:31:49;;;;;;;;;;;35.20;71.00;;;;;;5102551;28;19915;-71
2023/06/21 12:34:16;;;;;;;;;;;34.60;70.10;;;;;;5099987;28;19909;-70
2023/06/21 12:36:43;;;;;;;;;;;34.30;70.70;;;;;;5099896;28;19912;-71
2023/06/21 12:39:09;;;;;;;;;;;34.20;70.50;;;;;;5098087;28;20301;-71
2023/06/21 12:41:34;;;;;;;;;;;33.70;70.50;;;;;;5102051;28;20028;-71
2023/06/21 12:44:01;;;;;;;;;;;33.60;71.10;;;;;;5101715;28;19999;-70
2023/06/21 12:46:27;;;;;;;;;;;34.00;71.40;;;;;;5103972;28;19936;-71
2023/06/21 12:48:54;;;;;;;;;;;34.40;71.20;;;;;;5103091;28;20405;-72
2023/06/21 12:51:20;;;;;;;;;;;34.60;70.90;;;;;;5099732;28;19934;-71
2023/06/21 12:53:46;;;;;;;;;;;34.70;70.90;;;;;;5103135;28;19919;-69
2023/06/21 12:56:12;;;;;;;;;;;34.70;70.40;;;;;;5106759;28;20418;-71
2023/06/21 12:58:38;;;;;;;;;;;34.60;70.20;;;;;;5107793;28;20484;-70
2023/06/21 13:01:06;;;;;;;;;;;34.20;69.80;;;;;;5095042;28;19919;-71
2023/06/21 13:03:32;;;;;;;;;;;33.70;70.10;;;;;;5089086;28;20346;-71
2023/06/21 13:05:58;;;;;;;;;;;33.40;70.00;;;;;;5099617;28;20467;-71
2023/06/21 13:08:24;;;;;;;;;;;33.20;70.80;;;;;;5110450;28;20007;-71
2023/06/21 13:10:57;;;;;;;;;;;33.10;71.20;;;;;;5111322;28;19995;-70
2023/06/21 13:13:23;;;;;;;;;;;33.20;71.20;;;;;;5110901;28;19967;-71
2023/06/21 13:15:49;;;;;;;;;;;33.00;70.10;;;;;;5108872;28;20364;-71
2023/06/21 13:18:18;;;;;;;;;;;32.50;69.70;;;;;;5089512;28;19966;-70
2023/06/21 13:20:44;;;;;;;;;;;32.00;69.60;;;;;;5090382;28;19976;-72
2023/06/21 13:23:09;;;;;;;;;;;31.70;69.80;;;;;;5090681;28;19998;-72
2023/06/21 13:25:35;;;;;;;;;;;31.50;69.70;;;;;;5090425;28;19991;-71
2023/06/21 13:28:00;;;;;;;;;;;31.30;69.50;;;;;;5090334;28;20108;-72
2023/06/21 13:30:26;;;;;;;;;;;31.00;69.10;;;;;;5090460;28;19920;-72
2023/06/21 13:32:51;;;;;;;;;;;30.70;69.00;;;;;;5092834;28;20375;-71
2023/06/21 13:35:17;;;;;;;;;;;30.50;69.20;;;;;;5100578;28;20358;-72
2023/06/21 13:37:42;;;;;;;;;;;30.40;69.10;;;;;;5101025;28;19920;-71
2023/06/21 13:40:09;;;;;;;;;;;30.20;69.00;;;;;;5100768;28;19923;-71
2023/06/21 13:42:35;;;;;;;;;;;30.10;69.60;;;;;;5098063;28;19916;-71
2023/06/21 13:45:00;;;;;;;;;;;30.20;69.20;;;;;;5099854;28;19916;-71
2023/06/21 13:47:26;;;;;;;;;;;30.30;68.90;;;;;;5099133;28;19915;-72
2023/06/21 13:49:51;;;;;;;;;;;30.20;68.70;;;;;;5099885;28;19912;-71
2023/06/21 13:52:19;;;;;;;;;;;30.10;68.50;;;;;;5098614;28;20008;-70
2023/06/21 13:54:48;;;;;;;;;;;29.80;68.30;;;;;;5097297;28;19912;-71
2023/06/21 13:57:16;;;;;;;;;;;29.50;68.30;;;;;;5099564;28;19916;-71
2023/06/21 13:59:45;;;;;;;;;;;29.40;68.50;;;;;;5098266;28;19920;-72
2023/06/21 14:02:11;;;;;;;;;;;29.30;68.40;;;;;;5100527;28;19912;-71
2023/06/21 14:04:37;;;;;;;;;;;29.20;68.40;;;;;;5101081;28;20430;-72
2023/06/21 14:07:03;;;;;;;;;;;29.30;68.60;;;;;;5098267;28;19924;-70
2023/06/21 14:09:29;;;;;;;;;;;29.40;68.50;;;;;;5096970;28;19992;-70
2023/06/21 14:11:55;;;;;;;;;;;29.50;68.10;;;;;;5097013;28;19916;-71
2023/06/21 14:14:20;;;;;;;;;;;29.50;68.00;;;;;;5100027;28;19912;-71